createdAt,value
2023-01-17T00:45:29.517Z,56.71
2023-01-17T01:05:29.506Z,56.7
2023-01-17T01:45:28.763Z,56.7
2023-01-17T02:25:29.477Z,56.7
2023-01-17T02:45:29.533Z,56.69
2023-01-17T03:25:28.714Z,56.69
2023-01-17T05:25:28.738Z,56.68
2023-01-17T05:45:29.470Z,56.67
2023-01-17T06:05:29.459Z,56.67
2023-01-17T06:25:29.450Z,56.67
2023-01-17T06:45:29.454Z,56.67
2023-01-17T07:25:28.934Z,56.67
2023-01-17T07:45:29.450Z,56.66
2023-01-17T08:25:29.299Z,56.67
2023-01-17T10:05:29.297Z,56.66
2023-01-17T10:25:29.404Z,56.66
2023-01-17T10:45:28.622Z,56.65
2023-01-17T11:05:29.379Z,56.67
2023-01-17T11:25:29.393Z,56.67
2023-01-17T11:45:29.364Z,56.68
2023-01-17T12:05:29.384Z,56.69
2023-01-17T12:25:29.346Z,56.68
2023-01-17T12:45:29.303Z,56.69
2023-01-17T13:05:28.604Z,56.68
2023-01-17T13:25:29.147Z,56.68
2023-01-17T13:45:29.377Z,56.68
2023-01-17T14:05:29.254Z,56.66
2023-01-17T14:25:29.249Z,56.66
2023-01-17T14:45:29.274Z,56.64
2023-01-17T15:05:29.237Z,56.69
2023-01-17T15:25:29.113Z,56.65
2023-01-17T15:45:28.705Z,56.64
2023-01-17T16:05:29.109Z,56.63
2023-01-17T16:25:29.103Z,56.57
2023-01-17T16:45:29.240Z,56.62
2023-01-17T17:05:29.243Z,56.62
2023-01-17T17:45:29.255Z,56.62
2023-01-17T18:05:29.265Z,56.63
2023-01-17T18:25:29.253Z,56.62
2023-01-17T18:45:29.273Z,56.63
2023-01-17T19:05:29.280Z,56.62
2023-01-17T19:25:28.759Z,56.62
2023-01-17T19:45:29.349Z,56.62
2023-01-17T20:05:29.331Z,56.62
2023-01-17T20:25:29.320Z,56.62
2023-01-17T20:45:29.362Z,56.62
2023-01-17T21:25:29.354Z,56.62
2023-01-17T22:05:28.596Z,56.62
2023-01-17T22:25:29.391Z,56.62
2023-01-17T22:45:29.403Z,56.62
2023-01-17T23:05:29.413Z,56.62
2023-01-17T23:25:29.429Z,56.62
2023-01-17T23:45:29.441Z,56.62
